Data for 12/25/2013

Time Sea-Level Adjusted Pressure Absolute Pressure Temperature Relative Humidity Dew Point   
(mb) (inHg) (mb) (inHg) (C) (F) (%) (C) (F)
00:05 1027 30.33 856 25.28 -6.2 20.9 65 -11.7 10.9
00:10 1027 30.33 856 25.28 -6.1 21 67 -11.2 11.8
00:15 1027 30.33 856 25.28 -5.7 21.7 63 -11.7 10.9
00:20 1027 30.33 856 25.28 -5.9 21.3 63 -11.8 10.8
00:25 1027 30.33 856 25.28 -5.9 21.3 65 -11.5 11.4
00:30 1027 30.33 857 25.31 -6.2 20.8 64 -12 10.5
00:35 1027 30.33 857 25.31 -6.5 20.3 64 -12.2 10.1
00:40 1027 30.33 857 25.31 -6.5 20.3 64 -12.2 10
00:45 1027 30.33 857 25.31 -6.5 20.3 65 -12.1 10.3
00:50 1028 30.36 857 25.31 -5.8 21.6 63 -11.8 10.8
00:55 1028 30.36 857 25.31 -5.7 21.8 62 -11.9 10.6
01:00 1028 30.36 857 25.31 -6.3 20.6 64 -12 10.4
01:05 1028 30.36 857 25.31 -6.6 20.2 66 -11.9 10.5
01:10 1028 30.36 857 25.31 -6.6 20.1 65 -12.1 10.3
01:15 1028 30.36 857 25.31 -6.6 20.2 64 -12.4 9.8
01:20 1028 30.36 857 25.31 -6.7 20 65 -12.3 9.9
01:25 1028 30.36 857 25.31 -6.5 20.3 67 -11.7 10.9
01:30 1028 30.36 857 25.31 -6.2 20.8 63 -12.1 10.2
01:35 1028 30.36 857 25.31 -6.4 20.4 63 -12.5 9.6
01:40 1028 30.36 857 25.31 -6.6 20.1 63 -12.5 9.5
01:45 1028 30.36 857 25.31 -6.7 20 63 -12.5 9.5
01:50 1028 30.36 857 25.31 -6.5 20.3 63 -12.4 9.7
01:55 1028 30.36 857 25.31 -6.2 20.8 63 -12.2 10.1
02:00 1028 30.36 857 25.31 -5.9 21.3 65 -11.4 11.4
02:05 1028 30.36 857 25.31 -6 21.3 64 -11.7 11
02:10 1028 30.36 857 25.31 -5.9 21.4 63 -11.8 10.7
02:15 1028 30.36 857 25.31 -6.3 20.7 63 -12.3 9.9
02:20 1028 30.36 857 25.31 -6.7 20 63 -12.7 9.1
02:25 1028 30.36 857 25.31 -7 19.4 64 -12.7 9.2
02:30 1028 30.36 857 25.31 -6.9 19.6 65 -12.5 9.6
02:35 1028 30.36 857 25.31 -6.3 20.6 63 -12.3 9.9
02:40 1028 30.36 857 25.31 -6.3 20.7 63 -12.1 10.2
02:45 1028 30.36 857 25.31 -6.3 20.7 63 -12.1 10.1
02:50 1028 30.36 857 25.31 -6.7 19.9 67 -11.9 10.5
02:55 1028 30.36 857 25.31 -7 19.3 63 -12.9 8.8
03:00 1028 30.36 857 25.31 -7.2 19 65 -12.8 9
03:05 1028 30.36 857 25.31 -7.2 19.1 65 -12.6 9.3
03:10 1028 30.36 857 25.31 -7.2 19 66 -12.5 9.5
03:15 1028 30.36 857 25.31 -6.9 19.5 62 -13 8.5
03:20 1028 30.36 857 25.31 -6.7 19.9 63 -12.7 9.1
03:25 1028 30.36 857 25.31 -6.9 19.6 63 -12.8 9
03:30 1028 30.36 857 25.31 -7.5 18.6 64 -13.1 8.4
03:35 1028 30.36 857 25.31 -7.5 18.6 67 -12.5 9.5
03:40 1028 30.36 857 25.31 -7.4 18.6 64 -13.1 8.3
03:45 1028 30.36 857 25.31 -7.2 19 63 -13.1 8.3
03:50 1028 30.36 857 25.31 -7.1 19.2 63 -13 8.6
03:55 1028 30.36 857 25.31 -7.3 18.9 63 -13.2 8.3
04:00 1028 30.36 857 25.31 -7.4 18.7 63 -13.2 8.3
04:05 1028 30.36 857 25.31 -7.7 18.2 64 -13.3 8
04:10 1028 30.36 857 25.31 -7.3 18.8 63 -13.1 8.4
04:15 1028 30.36 857 25.31 -6.8 19.7 61 -13.2 8.3
04:20 1028 30.36 857 25.31 -7.1 19.2 62 -13.2 8.3
04:25 1028 30.36 857 25.31 -7.2 19.1 61 -13.4 7.8
04:30 1028 30.36 857 25.31 -7.3 18.9 63 -13.1 8.4
04:35 1028 30.36 857 25.31 -7.4 18.8 59 -14 6.7
04:40 1028 30.36 857 25.31 -7.4 18.6 58 -14.3 6.3
04:45 1028 30.36 857 25.31 -7 19.4 56 -14.4 6.1
04:50 1028 30.36 857 25.31 -7 19.5 57 -14 6.7
04:55 1028 30.36 857 25.31 -6.9 19.6 58 -13.8 7.2
05:00 1028 30.36 857 25.31 -6.7 20 57 -13.9 6.9
05:05 1028 30.36 857 25.31 -7 19.4 58 -13.9 7
05:10 1028 30.36 857 25.31 -7.2 19 59 -13.9 7
05:15 1028 30.36 857 25.31 -7.3 18.9 58 -14.2 6.4
05:20 1028 30.36 857 25.31 -7.2 19.1 62 -13.3 8.1
05:25 1028 30.36 857 25.31 -7.2 19.1 58 -14.1 6.7
05:30 1028 30.36 857 25.31 -7.4 18.7 59 -14.1 6.6
05:35 1028 30.36 857 25.31 -7.7 18.1 60 -14.3 6.3
05:40 1028 30.36 857 25.31 -7.7 18.1 59 -14.3 6.2
05:45 1028 30.36 857 25.31 -7.6 18.4 57 -14.6 5.6
05:50 1028 30.36 857 25.31 -7.4 18.7 55 -15 5
05:55 1028 30.36 857 25.31 -7.2 19 56 -14.5 5.9
06:00 1028 30.36 857 25.31 -7.3 18.9 54 -15 5.1
06:05 1028 30.36 857 25.31 -6.9 19.6 53 -15 5.1
06:10 1028 30.36 857 25.31 -6.9 19.5 54 -14.7 5.5
06:15 1028 30.36 857 25.31 -7.1 19.2 54 -14.9 5.3
06:20 1028 30.36 857 25.31 -7.1 19.3 54 -15 5
06:25 1028 30.36 857 25.31 -7.1 19.2 54 -14.9 5.3
06:30 1028 30.36 857 25.31 -7.4 18.7 55 -14.9 5.1
06:35 1028 30.36 857 25.31 -7.6 18.4 55 -15 4.9
06:40 1028 30.36 857 25.31 -7.4 18.6 56 -14.8 5.4
06:45 1028 30.36 857 25.31 -7.4 18.7 55 -15 5
06:50 1028 30.36 857 25.31 -7.5 18.4 56 -14.9 5.1
06:55 1028 30.36 857 25.31 -7.9 17.8 58 -14.7 5.5
07:00 1028 30.36 857 25.31 -8.1 17.4 60 -14.6 5.8
07:05 1028 30.36 858 25.34 -7.9 17.8 60 -14.4 6.1
07:10 1028 30.36 857 25.31 -7.3 18.8 58 -14.3 6.3
07:15 1028 30.36 857 25.31 -7.8 18 60 -14.3 6.2
07:20 1028 30.36 857 25.31 -8.2 17.2 58 -15 4.9
07:25 1028 30.36 857 25.31 -7.7 18.1 56 -15.1 4.8
07:30 1028 30.36 857 25.31 -7.8 18 56 -15 5
07:35 1028 30.36 857 25.31 -7.8 18.1 57 -15 5.1
07:40 1028 30.36 857 25.31 -7.7 18.2 56 -15.1 4.8
07:45 1028 30.36 857 25.31 -8.2 17.3 59 -14.9 5.2
07:50 1028 30.36 857 25.31 -8.2 17.2 60 -14.8 5.4
07:55 1028 30.36 857 25.31 -7.8 17.9 59 -14.6 5.8
08:00 1028 30.36 857 25.31 -7.3 18.8 59 -14.1 6.7
08:05 1028 30.36 857 25.31 -6.9 19.6 58 -13.8 7.1
08:10 1028 30.36 857 25.31 -6.8 19.8 57 -13.9 6.9
08:15 1028 30.36 857 25.31 -7.3 18.8 59 -14 6.8
08:20 1028 30.36 857 25.31 -7.1 19.1 57 -14.4 6.1
08:25 1028 30.36 857 25.31 -7.1 19.2 56 -14.5 5.8
08:30 1028 30.36 857 25.31 -7 19.4 55 -14.5 6
08:35 1028 30.36 857 25.31 -7.5 18.6 59 -14.2 6.5
08:40 1028 30.36 857 25.31 -7.6 18.4 58 -14.4 6.1
08:45 1028 30.36 857 25.31 -7.3 19 58 -14.2 6.5
08:50 1028 30.36 857 25.31 -7.1 19.2 57 -14.3 6.2
08:55 1028 30.36 857 25.31 -7.4 18.7 58 -14.2 6.4
09:00 1028 30.36 857 25.31 -7.6 18.4 61 -13.8 7.1
09:05 1028 30.36 857 25.31 -7.4 18.6 59 -14.1 6.7
09:10 1028 30.36 857 25.31 -7.7 18.2 63 -13.6 7.4
09:15 1028 30.36 857 25.31 -7.8 18 62 -13.9 7.1
09:20 1028 30.36 857 25.31 -7.6 18.2 62 -13.8 7.2
09:25 1028 30.36 857 25.31 -7.3 18.8 59 -14 6.9
09:30 1028 30.36 857 25.31 -6.5 20.3 56 -14 6.8
09:35 1028 30.36 857 25.31 -7 19.3 57 -14.2 6.5
09:40 1028 30.36 857 25.31 -7.2 19 59 -14 6.8
09:45 1028 30.36 857 25.31 -7.6 18.4 60 -14.1 6.7
09:50 1028 30.36 857 25.31 -7.2 19.1 58 -14.1 6.7
09:55 1028 30.36 857 25.31 -7.2 19.1 59 -14 6.9
10:00 1028 30.36 858 25.34 -6.8 19.7 58 -13.8 7.2
10:05 1028 30.36 858 25.34 -6.1 21 57 -13.4 7.8
10:10 1028 30.36 858 25.34 -6 21.2 56 -13.3 8
10:15 1029 30.39 858 25.34 -6.4 20.6 57 -13.5 7.6
10:20 1029 30.39 858 25.34 -6.4 20.4 55 -14.1 6.6
10:25 1029 30.39 858 25.34 -6.2 20.8 55 -13.9 6.9
10:30 1029 30.39 858 25.34 -6.2 20.9 54 -14.1 6.7
10:35 1029 30.39 858 25.34 -5.6 21.8 52 -14.1 6.7
10:40 1029 30.39 858 25.34 -4.8 23.3 52 -13.3 8
10:45 1029 30.39 858 25.34 -4.2 24.4 50 -13.3 8.1
10:50 1029 30.39 858 25.34 -3.9 24.9 49 -13.1 8.5
10:55 1029 30.39 858 25.34 -3.6 25.5 49 -12.8 9
11:00 1029 30.39 858 25.34 -3.3 26.1 48 -12.8 9
11:05 1029 30.39 858 25.34 -3.6 25.5 50 -12.6 9.3
11:10 1029 30.39 858 25.34 -3.5 25.6 48 -12.9 8.7
11:15 1029 30.39 858 25.34 -2.7 27.1 47 -12.4 9.6
11:20 1029 30.39 858 25.34 -2.3 27.8 47 -12.3 9.9
11:25 1029 30.39 858 25.34 -2.6 27.4 47 -12.5 9.6
11:30 1029 30.39 858 25.34 -2.8 27 47 -12.5 9.5
11:35 1029 30.39 858 25.34 -2.9 26.8 48 -12.5 9.5
11:40 1029 30.39 858 25.34 -2.3 27.8 46 -12.5 9.5
11:45 1029 30.39 858 25.34 -2.1 28.1 46 -12.3 9.9
11:50 1029 30.39 858 25.34 -2.6 27.4 47 -12.4 9.7
11:55 1029 30.39 858 25.34 -3.2 26.3 50 -12.2 10
12:00 1029 30.39 858 25.34 -2.8 26.9 48 -12.3 9.9
12:05 1029 30.39 858 25.34 -1.9 28.6 47 -11.8 10.7
12:10 1029 30.39 858 25.34 -1.6 29.1 44 -12.2 10
12:15 1029 30.39 858 25.34 -1.3 29.7 45 -11.9 10.7
12:20 1029 30.39 858 25.34 -1.3 29.6 45 -11.8 10.8
12:25 1028 30.36 858 25.34 -1.3 29.6 43 -12.4 9.7
12:30 1028 30.36 858 25.34 -1.7 29 44 -12.3 9.9
12:35 1028 30.36 858 25.34 -1.6 29.1 45 -12 10.4
12:40 1028 30.36 857 25.31 -1.6 29.2 46 -11.7 10.9
12:45 1028 30.36 857 25.31 -1.9 28.6 47 -11.8 10.8
12:50 1028 30.36 857 25.31 -1.6 29.1 44 -12.3 9.9
12:55 1028 30.36 857 25.31 -1.9 28.5 47 -11.9 10.6
13:00 1028 30.36 857 25.31 -1.4 29.5 44 -12.1 10.2
13:05 1028 30.36 857 25.31 -2.1 28.3 48 -11.8 10.8
13:10 1028 30.36 857 25.31 -2 28.3 45 -12.4 9.8
13:15 1028 30.36 857 25.31 -1.4 29.4 43 -12.4 9.7
13:20 1028 30.36 857 25.31 -0.5 31.2 42 -11.9 10.5
13:25 1028 30.36 857 25.31 -0.1 31.9 41 -11.9 10.5
13:30 1027 30.33 857 25.31 -0.2 31.6 41 -12 10.5
13:35 1027 30.33 857 25.31 -0.5 31.1 41 -12.3 9.9
13:40 1027 30.33 857 25.31 -0.5 31 40 -12.6 9.3
13:45 1027 30.33 856 25.28 -0.1 31.7 42 -11.5 11.3
13:50 1027 30.33 856 25.28 -0.3 31.5 41 -11.9 10.6
13:55 1027 30.33 856 25.28 -0.2 31.7 43 -11.2 11.8
14:00 1027 30.33 856 25.28 -0.5 31.2 44 -11.4 11.5
14:05 1027 30.33 856 25.28 -0.4 31.3 43 -11.4 11.5
14:10 1027 30.33 856 25.28 -0.3 31.5 39 -12.5 9.5
14:15 1027 30.33 856 25.28 0.4 32.8 38 -12.4 9.7
14:20 1026 30.3 856 25.28 0.3 32.6 38 -12.3 9.9
14:25 1026 30.3 855 25.25 0.6 33 35 -13.2 8.2
14:30 1026 30.3 855 25.25 0.2 32.3 37 -13 8.6
14:35 1026 30.3 855 25.25 0.7 33.3 37 -12.4 9.7
14:40 1026 30.3 855 25.25 1.1 33.9 36 -12.5 9.5
14:45 1026 30.3 855 25.25 1.2 34.1 38 -11.7 10.9
14:50 1026 30.3 855 25.25 1 33.8 36 -12.4 9.7
14:55 1026 30.3 855 25.25 1.1 34 38 -11.8 10.8
15:00 1026 30.3 855 25.25 1 33.7 39 -11.6 11.2
15:05 1026 30.3 855 25.25 1 33.8 38 -11.9 10.5
15:10 1026 30.3 855 25.25 1.3 34.3 36 -12.1 10.2
15:15 1026 30.3 855 25.25 2.1 35.7 35 -11.8 10.8
15:20 1026 30.3 855 25.25 2.2 35.9 35 -11.7 10.9
15:25 1025 30.27 855 25.25 2.2 36 35 -11.6 11.2
15:30 1025 30.27 855 25.25 2.2 35.9 35 -11.8 10.7
15:35 1025 30.27 855 25.25 1.9 35.4 35 -12.1 10.2
15:40 1025 30.27 854 25.22 1.3 34.3 36 -12.2 10
15:45 1025 30.27 854 25.22 1.4 34.6 37 -11.7 11
15:50 1025 30.27 854 25.22 1.7 35.1 36 -11.9 10.5
15:55 1025 30.27 854 25.22 1.2 34.1 37 -11.8 10.7
16:00 1025 30.27 854 25.22 1.8 35.2 35 -12.1 10.2
16:05 1025 30.27 854 25.22 1.8 35.2 35 -12.1 10.3
16:10 1025 30.27 854 25.22 1.2 34.1 37 -12.1 10.2
16:15 1025 30.27 854 25.22 1.2 34.2 35 -12.6 9.3
16:20 1025 30.27 854 25.22 1.3 34.3 37 -11.9 10.5
16:25 1025 30.27 854 25.22 1 33.9 37 -12.2 10
16:30 1025 30.27 854 25.22 0.9 33.6 39 -11.4 11.5
16:35 1025 30.27 854 25.22 0.8 33.5 40 -11.4 11.4
16:40 1025 30.27 854 25.22 0.7 33.3 40 -11.3 11.7
16:45 1025 30.27 854 25.22 0.2 32.4 44 -10.8 12.6
16:50 1025 30.27 854 25.22 0.2 32.3 43 -11 12.2
16:55 1025 30.27 854 25.22 -0.2 31.7 43 -11.4 11.5
17:00 1025 30.27 854 25.22 -0.2 31.6 43 -11.5 11.3
17:05 1025 30.27 854 25.22 -0.5 31 45 -11 12.2
17:10 1025 30.27 854 25.22 -0.2 31.6 41 -11.9 10.6
17:15 1025 30.27 854 25.22 0 32.1 41 -11.6 11.1
17:20 1025 30.27 854 25.22 -0.1 31.9 43 -11.3 11.6
17:25 1025 30.27 854 25.22 -0.2 31.6 43 -11.3 11.6
17:30 1024 30.24 854 25.22 -0.3 31.4 44 -11.3 11.7
17:35 1025 30.27 854 25.22 -0.8 30.6 47 -10.8 12.5
17:40 1025 30.27 854 25.22 -1.8 28.7 49 -11.1 12
17:45 1025 30.27 854 25.22 -2.3 27.8 51 -11.2 11.8
17:50 1025 30.27 854 25.22 -2.5 27.6 51 -11.3 11.6
17:55 1024 30.24 854 25.22 -2.3 27.9 49 -11.6 11.1
18:00 1024 30.24 854 25.22 -2.5 27.4 49 -11.9 10.6
18:05 1024 30.24 853 25.19 -2.9 26.8 50 -12 10.4
18:10 1024 30.24 853 25.19 -3.1 26.4 52 -11.8 10.8
18:15 1024 30.24 853 25.19 -3.4 26 54 -11.5 11.4
18:20 1024 30.24 853 25.19 -3.7 25.3 54 -11.7 11
18:25 1024 30.24 853 25.19 -3.6 25.5 54 -11.7 11
18:30 1024 30.24 853 25.19 -3.6 25.5 54 -11.7 11
18:35 1024 30.24 853 25.19 -3.6 25.6 52 -12.1 10.2
18:40 1024 30.24 853 25.19 -3.8 25.2 49 -13 8.6
18:45 1024 30.24 853 25.19 -3.8 25.1 49 -13.1 8.3
18:50 1023 30.21 853 25.19 -4 24.9 49 -13.2 8.3
18:55 1023 30.21 852 25.16 -4.2 24.4 49 -13.4 7.8
19:00 1023 30.21 852 25.16 -3.9 25 47 -13.6 7.5
19:05 1023 30.21 852 25.16 -3.5 25.7 46 -13.4 7.8
19:10 1023 30.21 852 25.16 -3.2 26.2 44 -13.8 7.2
19:15 1023 30.21 853 25.19 -2.9 26.7 44 -13.7 7.4
19:20 1023 30.21 853 25.19 -3 26.7 44 -13.6 7.4
19:25 1023 30.21 853 25.19 -2.8 26.9 41 -14.3 6.2
19:30 1023 30.21 853 25.19 -2.2 28.1 40 -14.1 6.6
19:35 1024 30.24 853 25.19 -2.3 27.9 39 -14.3 6.2
19:40 1024 30.24 853 25.19 -2.1 28.2 41 -13.7 7.4
19:45 1024 30.24 853 25.19 -2.5 27.5 40 -14.3 6.2
19:50 1024 30.24 853 25.19 -2.8 27 40 -14.5 5.9
19:55 1024 30.24 853 25.19 -2.5 27.5 39 -14.7 5.6
20:00 1024 30.24 853 25.19 -2.5 27.6 39 -14.5 5.9
20:05 1024 30.24 853 25.19 -3 26.6 42 -14.1 6.6
20:10 1024 30.24 853 25.19 -2.8 27 41 -14.4 6
20:15 1024 30.24 853 25.19 -2.3 27.9 38 -14.7 5.6
20:20 1024 30.24 853 25.19 -2 28.4 42 -13.3 8.1
20:25 1024 30.24 854 25.22 -1.9 28.7 40 -13.7 7.4
20:30 1024 30.24 854 25.22 -1.1 30 41 -12.8 8.9
20:35 1024 30.24 854 25.22 -1.3 29.6 43 -12.4 9.6
20:40 1025 30.27 854 25.22 -1.1 30 42 -12.3 9.8
20:45 1025 30.27 854 25.22 -1.2 29.8 44 -12.1 10.3
20:50 1025 30.27 854 25.22 -1.3 29.7 45 -11.8 10.8
20:55 1024 30.24 854 25.22 -1.1 30.1 44 -11.8 10.7
21:00 1025 30.27 854 25.22 -1.1 30 46 -11.3 11.6
21:05 1025 30.27 854 25.22 -2 28.4 50 -11.2 11.9
21:10 1025 30.27 854 25.22 -2.2 28 51 -11 12.2
21:15 1025 30.27 854 25.22 -1.8 28.8 49 -11.2 11.8
21:20 1025 30.27 854 25.22 -1 30.2 48 -10.7 12.8
21:25 1025 30.27 854 25.22 -0.7 30.7 45 -11.3 11.6
21:30 1025 30.27 854 25.22 -0.5 31 45 -11.2 11.9
21:35 1025 30.27 854 25.22 -0.6 30.8 48 -10.5 13.2
21:40 1025 30.27 854 25.22 -0.7 30.7 48 -10.4 13.3
21:45 1025 30.27 854 25.22 -0.3 31.5 43 -11.4 11.6
21:50 1025 30.27 854 25.22 0.5 32.9 40 -11.6 11.1
21:55 1025 30.27 854 25.22 1.2 34.1 37 -12.1 10.3
22:00 1025 30.27 854 25.22 0.9 33.7 46 -9.4 15.1
22:05 1025 30.27 854 25.22 -0 32 48 -9.9 14.3
22:10 1025 30.27 854 25.22 0.3 32.5 45 -10.4 13.3
22:15 1025 30.27 854 25.22 0.5 32.9 44 -10.4 13.3
22:20 1025 30.27 854 25.22 0.7 33.2 45 -10 14
22:25 1025 30.27 854 25.22 0.7 33.2 44 -10.1 13.8
22:30 1025 30.27 854 25.22 0.8 33.5 41 -11 12.3
22:35 1025 30.27 854 25.22 1.2 34.2 41 -10.7 12.7
22:40 1025 30.27 854 25.22 1.4 34.6 40 -10.7 12.7
22:45 1025 30.27 854 25.22 1.5 34.8 40 -10.6 12.8
22:50 1025 30.27 854 25.22 1.5 34.7 41 -10.3 13.5
22:55 1025 30.27 854 25.22 1.4 34.6 41 -10.6 12.9
23:00 1025 30.27 854 25.22 1.5 34.7 41 -10.3 13.4
23:05 1025 30.27 854 25.22 1.4 34.5 42 -10.2 13.7
23:10 1025 30.27 854 25.22 1.2 34.2 42 -10.2 13.6
23:15 1025 30.27 854 25.22 1.3 34.3 42 -10.3 13.5
23:20 1025 30.27 854 25.22 1.3 34.3 43 -10.1 13.8
23:25 1025 30.27 854 25.22 1.3 34.4 43 -10.1 13.9
23:30 1025 30.27 854 25.22 1.3 34.3 43 -10.1 13.9
23:35 1025 30.27 854 25.22 1.3 34.3 42 -10.2 13.6
23:40 1025 30.27 854 25.22 1.5 34.7 41 -10.5 13.2
23:45 1025 30.27 854 25.22 1.7 35 40 -10.5 13.1
23:50 1025 30.27 854 25.22 1.5 34.7 43 -9.9 14.2
23:55 1025 30.27 854 25.22 1.2 34.2 43 -10 14
24:00 1025 30.27 854 25.22 1.1 34 45 -9.5 14.8